Time;durP1;ratioP1;P1;durP2;ratioP2;P2;SDS_P1;SDS_P2;PMS_P1;PMS_P2;Temp;Humidity;BMP_temperature;BMP_pressure;BME280_temperature;BME280_humidity;BME280_pressure;Samples;Min_cycle;Max_cycle;Signal;HPM_P1;HPM_P2
2024/01/09 02:06:01;;;;;;;;;;;;;;;;;;;;;
2024/01/09 02:27:05;;;;;;;;;;;;;;;;;;;;;
2024/01/09 02:30:13;;;;;;;0.10;0.10;;;;;;;2.43;81.67;101681.50;4984627;28;20121;-77
2024/01/09 02:36:47;;;;;;;0.00;0.00;;;;;;;2.48;81.36;101697.97;4978662;28;20033;-77
2024/01/09 02:49:17;;;;;;;0.00;0.00;;;;;;;2.38;81.13;101675.78;4994152;28;20024;-78
2024/01/09 02:52:09;;;;;;;0.00;0.00;;;;;;;2.37;81.28;101663.34;4973554;28;20035;-77
2024/01/09 02:54:56;;;;;;;;;;;;;;;;;;;;;
2024/01/09 02:57:57;;;;;;;0.10;0.10;;;;;;;2.46;81.29;101675.75;4983155;28;20471;-76
2024/01/09 03:00:26;;;;;;;0.00;0.00;;;;;;;2.32;80.78;101658.47;4977008;28;20469;-78
2024/01/09 03:03:08;;;;;;;0.00;0.00;;;;;;;2.61;81.56;101717.16;4977076;28;20026;-77
2024/01/09 03:05:47;;;;;;;;;;;;;;;;;;;;;
2024/01/09 03:08:15;;;;;;;0.00;0.00;;;;;;;2.55;81.16;101709.75;4995270;28;20455;-78
2024/01/09 03:10:41;;;;;;;0.00;0.00;;;;;;;2.44;80.76;101694.00;4980595;28;20026;-77
2024/01/09 03:13:34;;;;;;;;;;;;;;;;;;;;;
2024/01/09 03:46:49;;;;;;;;;;;;;;;;;;;;;
2024/01/09 03:49:24;;;;;;;0.00;0.00;;;;;;;2.57;80.49;101637.50;4732087;30;20431;-76
2024/01/09 03:51:55;;;;;;;0.00;0.00;;;;;;;2.56;80.97;101632.28;4759452;30;20056;-76
2024/01/09 04:22:38;;;;;;;0.00;0.00;;;;;;;2.73;79.70;101682.44;4747367;30;20023;-76
2024/01/09 04:35:38;;;;;;;0.00;0.00;;;;;;;2.36;79.16;101631.94;4843988;29;20527;-76
2024/01/09 04:38:29;;;;;;;0.10;0.10;;;;;;;2.25;79.98;101607.06;4879931;29;20048;-76
2024/01/09 04:41:25;;;;;;;0.00;0.00;;;;;;;2.46;79.46;101651.44;4842015;29;20026;-76
2024/01/09 04:44:17;;;;;;;0.00;0.00;;;;;;;2.57;79.25;101678.00;4835025;29;20101;-76
2024/01/09 04:47:02;;;;;;;0.00;0.00;;;;;;;2.22;79.08;101625.47;4922527;29;20020;-77
2024/01/09 04:49:30;;;;;;;0.00;0.00;;;;;;;2.37;79.50;101649.84;4946899;28;20030;-76
2024/01/09 04:51:55;;;;;;;0.00;0.00;;;;;;;2.38;78.83;101654.19;4949483;28;20041;-76
2024/01/09 04:54:51;;;;;;;;;;;;;;;;;;;;;
2024/01/09 04:57:29;;;;;;;0.00;0.00;;;;;;;2.51;79.92;101670.66;4990136;28;20445;-76
2024/01/09 05:00:31;;;;;;;0.00;0.00;;;;;;;2.27;78.94;101629.31;4954517;28;20031;-78
2024/01/09 05:03:49;;;;;;;;;;;;;;;;;;;;;
2024/01/09 05:06:19;;;;;;;0.00;0.00;;;;;;;2.54;79.00;101664.88;4985323;28;20730;-76
2024/01/09 05:09:05;;;;;;;0.00;0.00;;;;;;;2.62;78.88;101675.59;4970644;28;20069;-76
2024/01/09 05:11:31;;;;;;;0.00;0.00;;;;;;;2.34;78.75;101625.91;4955731;28;20181;-78
2024/01/09 05:18:19;;;;;;;;;;;;;;;;;;;;;
2024/01/09 05:42:58;;;;;;;0.00;0.00;;;;;;;2.19;78.41;101624.00;4747961;30;20067;-76
2024/01/09 05:45:37;;;;;;;0.10;0.10;;;;;;;2.17;78.45;101612.53;4773691;29;20056;-75
2024/01/09 05:48:16;;;;;;;0.10;0.10;;;;;;;2.06;78.68;101583.28;4830751;29;20084;-77
2024/01/09 05:51:36;;;;;;;;;;;;;;;;;;;;;
2024/01/09 06:01:24;;;;;;;0.00;0.00;;;;;;;2.47;78.92;101641.47;4859262;29;20057;-77
2024/01/09 06:08:07;;;;;;;;;;;;;;;;;;;;;
2024/01/09 06:10:47;;;;;;;;;;;;;;;;;;;;;
2024/01/09 06:14:45;;;;;;;;;;;;;;;;;;;;;
2024/01/09 06:28:38;;;;;;;;;;;;;;;;;;;;;
2024/01/09 06:40:31;;;;;;;0.00;0.00;;;;;;;2.30;78.42;101651.59;4970082;28;20110;-76
2024/01/09 06:43:12;;;;;;;0.00;0.00;;;;;;;2.35;78.29;101651.84;4985301;28;20038;-76
2024/01/09 06:46:07;;;;;;;0.00;0.00;;;;;;;2.27;78.01;101640.09;4972782;28;20061;-77
2024/01/09 06:49:19;;;;;;;0.00;0.00;;;;;;;2.22;78.40;101642.53;4953692;28;20026;-77
2024/01/09 06:52:45;;;;;;;;;;;;;;;;;;;;;
2024/01/09 06:55:21;;;;;;;;;;;;;;;;;;;;;
2024/01/09 06:58:38;;;;;;;0.00;0.00;;;;;;;2.42;78.45;101663.63;4974801;28;20005;-77
2024/01/09 07:01:53;;;;;;;0.00;0.00;;;;;;;2.26;79.29;101627.66;4896949;29;20172;-76
2024/01/09 07:05:04;;;;;;;0.00;0.00;;;;;;;2.40;79.19;101665.66;4856524;29;20037;-76
2024/01/09 07:07:41;;;;;;;0.00;0.00;;;;;;;2.17;79.39;101658.41;4864650;29;20123;-76
2024/01/09 07:10:10;;;;;;;0.00;0.00;;;;;;;2.04;79.50;101666.25;4886769;29;20024;-75
2024/01/09 07:12:41;;;;;;;0.00;0.00;;;;;;;1.70;79.86;101629.72;4890763;29;20107;-76
2024/01/09 07:16:14;;;;;;;0.00;0.00;;;;;;;1.48;80.34;101599.03;4879506;29;20061;-77
2024/01/09 07:18:39;;;;;;;0.00;0.00;;;;;;;1.68;81.36;101621.81;4917720;28;20082;-77
2024/01/09 07:32:11;;;;;;;0.00;0.00;;;;;;;1.91;83.49;101672.25;4959220;29;20039;-76
2024/01/09 07:34:37;;;;;;;0.00;0.00;;;;;;;1.67;82.00;101659.75;4952656;29;20055;-79
2024/01/09 07:37:02;;;;;;;0.00;0.00;;;;;;;1.58;80.72;101661.66;4947075;28;20105;-78
2024/01/09 07:42:55;;;;;;;0.00;0.00;;;;;;;0.95;80.22;101629.22;4950293;29;20050;-73
2024/01/09 07:46:06;;;;;;;0.00;0.00;;;;;;;1.13;80.39;101666.72;4947309;29;20086;-75
2024/01/09 07:48:20;;;;;;;0.10;0.10;;;;;;;1.15;80.93;101685.41;4946779;29;20553;-76
2024/01/09 07:58:48;;;;;;;0.10;0.10;;;;;;;1.21;80.14;101699.03;4871599;29;20129;-75
2024/01/09 08:02:11;;;;;;;;;;;;;;;;;;;;;
2024/01/09 08:05:18;;;;;;;0.00;0.00;;;;;;;0.92;80.00;101640.34;4876252;29;20033;-74
2024/01/09 08:15:36;;;;;;;0.00;0.00;;;;;;;0.91;79.21;101664.75;4829486;29;20034;-75
2024/01/09 08:22:22;;;;;;;;;;;;;;;;;;;;;
2024/01/09 08:29:27;;;;;;;;;;;;;;;;;;;;;
2024/01/09 08:33:02;;;;;;;;;;;;;;;;;;;;;
2024/01/09 08:57:23;;;;;;;0.10;0.10;;;;;;;1.16;79.10;101670.91;4935011;29;20413;-74
2024/01/09 08:59:59;;;;;;;0.10;0.10;;;;;;;1.25;79.04;101677.13;4950796;28;20061;-76
2024/01/09 09:02:44;;;;;;;0.10;0.10;;;;;;;1.04;79.75;101654.28;4939974;28;20121;-76
2024/01/09 09:09:34;;;;;;;;;;;;;;;;;;;;;
2024/01/09 09:16:17;;;;;;;0.00;0.00;;;;;;;1.50;78.11;101669.78;4825685;29;20549;-75
2024/01/09 09:26:48;;;;;;;0.10;0.10;;;;;;;2.17;77.61;101720.47;4762268;30;20138;-76
2024/01/09 09:30:06;;;;;;;0.00;0.00;;;;;;;2.17;76.37;101693.50;4733064;30;20047;-75
2024/01/09 09:33:28;;;;;;;;;;;;;;;;;;;;;
2024/01/09 09:40:37;;;;;;;0.00;0.00;;;;;;;2.24;75.14;101667.47;4783882;29;20107;-77
2024/01/09 09:47:25;;;;;;;0.00;0.00;;;;;;;2.70;73.84;101717.06;4780172;29;20199;-76
2024/01/09 09:50:23;;;;;;;0.00;0.00;;;;;;;2.85;74.07;101715.25;4797085;29;20655;-75
2024/01/09 09:52:54;;;;;;;0.10;0.10;;;;;;;2.61;73.51;101668.53;4820864;29;20608;-74
2024/01/09 09:55:40;;;;;;;0.00;0.00;;;;;;;2.87;73.87;101688.88;4905163;29;20064;-75
2024/01/09 09:58:18;;;;;;;0.00;0.00;;;;;;;2.82;73.27;101661.56;4915948;28;20038;-74
2024/01/09 10:01:31;;;;;;;;;;;;;;;;;;;;;
2024/01/09 10:04:30;;;;;;;0.00;0.00;;;;;;;3.08;71.74;101657.56;4959030;28;20035;-74
2024/01/09 10:07:26;;;;;;;0.00;0.00;;;;;;;3.19;70.85;101670.63;4959358;28;20026;-75
2024/01/09 10:26:58;;;;;;;;;;;;;;;4.91;66.58;101720.59;4855295;29;20128;-75
2024/01/09 10:29:55;;;;;;;0.00;0.00;;;;;;;4.96;65.70;101672.03;4854584;29;19930;-75
2024/01/09 10:32:23;;;;;;;0.00;0.00;;;;;;;5.45;63.62;101707.38;4919424;29;20040;-75
2024/01/09 10:35:09;;;;;;;0.00;0.00;;;;;;;5.71;62.87;101655.94;4878686;29;20039;-76
2024/01/09 10:43:30;;;;;;;0.10;0.10;;;;;;;11.93;47.33;101689.69;4911221;28;20417;-75
2024/01/09 10:49:00;;;;;;;0.00;0.00;;;;;;;9.56;49.68;101701.16;4966530;28;20058;-75
2024/01/09 10:51:26;;;;;;;0.00;0.00;;;;;;;9.24;51.00;101725.88;4982540;28;20122;-74
2024/01/09 10:54:01;;;;;;;0.00;0.00;;;;;;;8.68;51.54;101696.78;4963977;28;20081;-76
2024/01/09 10:56:53;;;;;;;0.00;0.00;;;;;;;7.88;52.25;101665.41;4964668;28;20042;-74
2024/01/09 10:59:20;;;;;;;0.00;0.00;;;;;;;7.38;53.23;101681.53;4979313;28;20029;-75
2024/01/09 11:01:51;;;;;;;0.00;0.00;;;;;;;6.98;54.52;101658.00;4966766;28;20019;-75
2024/01/09 11:04:45;;;;;;;0.00;0.00;;;;;;;6.88;55.10;101666.56;4975874;28;20023;-74
2024/01/09 11:07:44;;;;;;;0.00;0.00;;;;;;;7.19;55.86;101705.03;4982000;28;20591;-74
2024/01/09 11:13:11;;;;;;;0.00;0.00;;;;;;;7.30;55.26;101698.91;4902310;29;20068;-75
2024/01/09 11:15:46;;;;;;;0.00;0.00;;;;;;;7.27;55.16;101688.47;4962211;28;20110;-74
2024/01/09 11:18:17;;;;;;;0.10;0.10;;;;;;;7.17;55.07;101683.47;4968826;28;20022;-75
2024/01/09 11:20:45;;;;;;;0.08;0.08;;;;;;;7.33;55.01;101704.78;4991673;28;20019;-75
2024/01/09 11:23:42;;;;;;;0.00;0.00;;;;;;;7.40;55.50;101706.66;4945615;28;20048;-74
2024/01/09 11:26:21;;;;;;;0.00;0.00;;;;;;;7.29;54.92;101699.97;4961627;28;20027;-75
2024/01/09 11:28:52;;;;;;;0.00;0.00;;;;;;;7.05;55.23;101685.97;4971738;28;20121;-75
2024/01/09 11:31:20;;;;;;;0.00;0.00;;;;;;;7.10;55.71;101702.53;4968105;28;20026;-75
2024/01/09 11:34:03;;;;;;;0.00;0.00;;;;;;;7.12;55.62;101696.88;4964950;28;20034;-75
2024/01/09 11:36:39;;;;;;;0.00;0.00;;;;;;;6.93;55.40;101661.31;4972023;28;20468;-75
2024/01/09 11:39:07;;;;;;;0.00;0.00;;;;;;;7.26;55.53;101698.53;4986841;28;20027;-76
2024/01/09 11:41:37;;;;;;;0.00;0.00;;;;;;;7.16;54.80;101666.31;4973605;28;20027;-76
2024/01/09 11:47:07;;;;;;;0.00;0.00;;;;;;;9.29;53.50;101675.19;4890523;29;20056;-75
2024/01/09 11:49:59;;;;;;;;;;;;;;;;;;;;;
2024/01/09 11:52:44;;;;;;;;;;;;;;;;;;;;;
2024/01/09 11:55:22;;;;;;;0.00;0.00;;;;;;;14.61;41.80;101683.31;4976253;28;20121;-76
2024/01/09 11:58:08;;;;;;;;;;;;;;;;;;;;;
2024/01/09 12:04:04;;;;;;;0.00;0.00;;;;;;;19.53;32.53;101662.56;4862040;29;20045;-74
2024/01/09 12:06:30;;;;;;;0.00;0.00;;;;;;;21.65;28.50;101660.72;4868064;29;20456;-75
2024/01/09 12:08:59;;;;;;;0.10;0.10;;;;;;;22.94;28.00;101679.94;4857230;29;20029;-76
2024/01/09 12:12:01;;;;;;;;;;;;;;;;;;;;;
2024/01/09 12:14:45;;;;;;;0.00;0.00;;;;;;;25.06;25.74;101663.94;4991681;28;20126;-75
2024/01/09 12:17:46;;;;;;;0.00;0.00;;;;;;;26.72;23.09;101639.53;4943756;28;20042;-75
2024/01/09 12:20:16;;;;;;;0.00;0.00;;;;;;;27.18;22.23;101626.25;4953967;28;20121;-76
2024/01/09 12:22:47;;;;;;;0.00;0.00;;;;;;;28.00;21.31;101636.47;4951630;28;20101;-75
2024/01/09 12:25:16;;;;;;;0.00;0.00;;;;;;;27.07;20.55;101627.88;4977687;28;20039;-74
2024/01/09 12:27:45;;;;;;;0.00;0.00;;;;;;;25.51;21.88;101637.38;4969291;28;20053;-75
2024/01/09 12:30:13;;;;;;;0.00;0.00;;;;;;;23.34;22.65;101621.41;4975944;28;20019;-76
2024/01/09 12:32:38;;;;;;;0.00;0.00;;;;;;;21.28;24.42;101609.72;4965771;28;20115;-74
2024/01/09 12:35:07;;;;;;;0.00;0.00;;;;;;;19.19;26.90;101624.69;4985181;28;20655;-76
2024/01/09 12:37:40;;;;;;;0.00;0.00;;;;;;;20.92;26.40;101610.44;4967721;28;20026;-75
2024/01/09 12:40:09;;;;;;;0.00;0.00;;;;;;;24.09;24.54;101635.31;4954469;28;20027;-74
2024/01/09 12:42:36;;;;;;;0.00;0.00;;;;;;;25.55;22.26;101622.38;4951257;28;20114;-75
2024/01/09 12:45:08;;;;;;;0.00;0.00;;;;;;;25.61;21.04;101608.97;4969046;28;21499;-74
2024/01/09 12:47:37;;;;;;;0.00;0.00;;;;;;;26.25;20.68;101633.03;4964641;28;20457;-75
2024/01/09 12:50:10;;;;;;;0.00;0.00;;;;;;;26.60;20.21;101621.47;4960354;28;20043;-75
2024/01/09 12:52:57;;;;;;;0.00;0.00;;;;;;;26.90;19.41;101614.91;4959435;28;20062;-75
2024/01/09 12:55:21;;;;;;;0.00;0.00;;;;;;;27.98;19.61;101593.84;4973625;28;20045;-75
2024/01/09 12:57:54;;;;;;;0.00;0.00;;;;;;;28.09;18.10;101587.72;4955345;28;20053;-73
2024/01/09 13:00:38;;;;;;;0.00;0.00;;;;;;;27.71;18.30;101577.75;4957543;28;20054;-75
2024/01/09 13:06:04;;;;;;;0.00;0.00;;;;;;;27.90;17.98;101608.03;4971616;28;20473;-73
2024/01/09 13:08:33;;;;;;;0.00;0.00;;;;;;;28.27;18.65;101560.09;4951639;28;20078;-75
2024/01/09 13:11:34;;;;;;;0.00;0.00;;;;;;;28.77;17.56;101616.88;4963468;28;20045;-76
2024/01/09 13:14:26;;;;;;;0.00;0.00;;;;;;;28.36;18.04;101586.88;4973392;28;20122;-75
2024/01/09 13:17:00;;;;;;;0.00;0.00;;;;;;;29.16;18.50;101572.00;4982145;28;20477;-75
2024/01/09 13:19:32;;;;;;;0.00;0.00;;;;;;;29.29;17.46;101582.00;4961940;28;20090;-74
2024/01/09 13:22:20;;;;;;;0.00;0.00;;;;;;;29.15;17.14;101605.00;4968983;28;20037;-76
2024/01/09 13:24:45;;;;;;;0.00;0.00;;;;;;;28.95;17.47;101601.28;4961347;28;20039;-75
2024/01/09 13:27:11;;;;;;;0.00;0.00;;;;;;;28.98;17.61;101571.59;4965619;28;20086;-74
2024/01/09 13:29:41;;;;;;;0.00;0.00;;;;;;;29.33;17.48;101587.72;4958588;28;20050;-75
2024/01/09 13:32:07;;;;;;;0.00;0.00;;;;;;;29.48;16.41;101571.97;4952361;28;20031;-76
2024/01/09 13:34:35;;;;;;;0.00;0.00;;;;;;;29.80;17.41;101583.91;4961257;28;20488;-75
2024/01/09 13:37:01;;;;;;;0.00;0.00;;;;;;;29.21;16.23;101585.81;4965492;28;20375;-76
2024/01/09 13:39:28;;;;;;;0.00;0.00;;;;;;;28.27;16.59;101571.34;4953514;28;20029;-75
2024/01/09 13:41:57;;;;;;;0.00;0.00;;;;;;;28.11;17.69;101563.69;4934206;28;20041;-74
2024/01/09 13:44:23;;;;;;;0.00;0.00;;;;;;;27.75;16.72;101533.75;4975854;28;20026;-75
2024/01/09 13:46:49;;;;;;;0.00;0.00;;;;;;;27.04;17.01;101550.00;4962348;28;20046;-76
2024/01/09 13:49:14;;;;;;;0.00;0.00;;;;;;;26.35;18.08;101552.50;4950965;28;20045;-75
2024/01/09 13:51:40;;;;;;;0.00;0.00;;;;;;;26.32;18.36;101565.22;4981357;28;20130;-76
2024/01/09 13:54:06;;;;;;;0.00;0.00;;;;;;;26.41;18.41;101545.47;4941885;28;20073;-75
2024/01/09 13:56:31;;;;;;;0.00;0.00;;;;;;;26.30;18.11;101529.09;4944536;28;20023;-76
2024/01/09 13:58:57;;;;;;;0.00;0.00;;;;;;;26.22;18.13;101560.84;4962339;28;20049;-75
2024/01/09 14:01:28;;;;;;;0.00;0.00;;;;;;;25.84;18.09;101528.22;4967330;28;20030;-75
2024/01/09 14:03:55;;;;;;;0.00;0.00;;;;;;;26.13;18.19;101540.50;4956724;28;20122;-76
2024/01/09 14:06:21;;;;;;;0.00;0.00;;;;;;;26.55;18.64;101564.81;4936313;28;20030;-75
2024/01/09 14:08:46;;;;;;;0.00;0.00;;;;;;;26.34;18.26;101539.63;4945405;28;20026;-75
2024/01/09 14:11:12;;;;;;;0.00;0.00;;;;;;;25.79;18.35;101534.06;4961351;28;20073;-75
2024/01/09 14:13:47;;;;;;;0.00;0.00;;;;;;;25.52;19.10;101569.84;4952672;28;20504;-75
2024/01/09 14:16:12;;;;;;;0.00;0.00;;;;;;;25.90;19.18;101538.03;4984222;28;20026;-75
2024/01/09 14:18:38;;;;;;;0.00;0.00;;;;;;;25.89;18.83;101530.00;4950569;28;20026;-76
2024/01/09 14:21:03;;;;;;;0.00;0.00;;;;;;;25.49;18.84;101539.72;4957252;28;20034;-75
2024/01/09 14:23:29;;;;;;;0.00;0.00;;;;;;;25.39;18.72;101551.31;4952576;28;20081;-76
2024/01/09 14:26:08;;;;;;;;;;;;;;;;;;;;;
2024/01/09 14:28:37;;;;;;;0.00;0.00;;;;;;;24.97;19.59;101554.03;4960543;28;20038;-75
2024/01/09 14:31:03;;;;;;;0.00;0.00;;;;;;;24.53;19.23;101560.59;4951790;28;20062;-76
2024/01/09 14:33:32;;;;;;;0.00;0.00;;;;;;;24.20;20.19;101550.00;4985975;28;20057;-76
2024/01/09 14:36:00;;;;;;;0.00;0.00;;;;;;;23.99;20.24;101529.47;4975610;28;20074;-77
2024/01/09 14:38:41;;;;;;;0.00;0.00;;;;;;;23.87;20.53;101531.00;4965296;28;20046;-74
2024/01/09 14:41:12;;;;;;;0.00;0.00;;;;;;;24.01;20.55;101541.16;4918918;29;20136;-76
2024/01/09 14:43:45;;;;;;;0.00;0.00;;;;;;;24.02;20.68;101552.00;4907326;29;20083;-77
2024/01/09 14:46:14;;;;;;;0.00;0.00;;;;;;;23.73;21.02;101547.06;4902601;29;20039;-75
2024/01/09 14:48:54;;;;;;;0.00;0.00;;;;;;;23.49;21.07;101539.97;4905933;29;20063;-76
2024/01/09 14:51:42;;;;;;;0.00;0.00;;;;;;;23.02;20.82;101542.50;4915338;29;20059;-76
2024/01/09 14:54:08;;;;;;;0.00;0.00;;;;;;;22.59;21.32;101552.34;4908190;29;20046;-76
2024/01/09 14:56:36;;;;;;;0.00;0.00;;;;;;;21.89;22.32;101545.47;4922414;29;20114;-76
2024/01/09 14:59:24;;;;;;;0.00;0.00;;;;;;;21.44;22.99;101547.03;4926523;29;20036;-77
2024/01/09 15:01:54;;;;;;;0.00;0.00;;;;;;;21.05;23.26;101533.72;4934734;29;20151;-76
2024/01/09 15:04:20;;;;;;;0.00;0.00;;;;;;;20.70;23.88;101553.56;4917774;28;20066;-76
2024/01/09 15:07:06;;;;;;;0.00;0.00;;;;;;;20.34;24.39;101509.78;4959204;28;20490;-76
2024/01/09 15:09:41;;;;;;;;;;;;;;;;;;;;;
2024/01/09 15:12:14;;;;;;;0.00;0.00;;;;;;;18.70;25.46;101537.09;4988709;28;20110;-77
2024/01/09 15:14:40;;;;;;;0.00;0.00;;;;;;;16.13;27.36;101520.78;4949301;28;20026;-77
2024/01/09 15:17:05;;;;;;;0.00;0.00;;;;;;;13.82;30.71;101550.00;4986487;28;20395;-77
2024/01/09 15:19:31;;;;;;;0.00;0.00;;;;;;;12.10;34.27;101541.72;4962930;28;20027;-76
2024/01/09 15:21:59;;;;;;;0.00;0.00;;;;;;;11.65;35.54;101557.06;4988384;28;20073;-76
2024/01/09 15:24:25;;;;;;;0.00;0.00;;;;;;;12.50;35.78;101518.72;4970168;28;20113;-77
2024/01/09 15:26:54;;;;;;;0.00;0.00;;;;;;;13.52;34.10;101523.88;4972594;28;20437;-76
2024/01/09 15:29:19;;;;;;;0.00;0.00;;;;;;;13.71;33.05;101480.34;4972788;28;20060;-76
2024/01/09 15:31:48;;;;;;;0.00;0.00;;;;;;;13.84;32.50;101526.66;4957470;28;20117;-77
2024/01/09 15:34:27;;;;;;;0.00;0.00;;;;;;;13.05;33.21;101530.72;4947948;28;20030;-78
2024/01/09 15:36:57;;;;;;;0.00;0.00;;;;;;;11.22;35.23;101542.00;4948399;28;20036;-77
2024/01/09 15:39:30;;;;;;;0.00;0.00;;;;;;;9.10;38.46;101489.66;4950355;28;20120;-77
2024/01/09 15:41:55;;;;;;;0.00;0.00;;;;;;;7.93;41.64;101520.38;4961137;28;20037;-76
2024/01/09 15:44:21;;;;;;;0.00;0.00;;;;;;;6.97;43.87;101506.72;4977290;28;20505;-77
2024/01/09 15:46:56;;;;;;;0.00;0.00;;;;;;;6.35;45.84;101523.41;4956036;28;20042;-77
2024/01/09 15:49:22;;;;;;;0.00;0.00;;;;;;;5.77;48.40;101518.59;4961487;28;20054;-78
2024/01/09 15:52:47;;;;;;;0.00;0.00;;;;;;;5.31;51.03;101522.84;4972940;28;20042;-77
2024/01/09 15:55:22;;;;;;;0.00;0.00;;;;;;;4.63;52.79;101492.97;4967645;28;20074;-76
2024/01/09 15:58:07;;;;;;;0.00;0.00;;;;;;;4.47;52.48;101526.66;4962118;28;20482;-77
2024/01/09 16:00:53;;;;;;;0.00;0.00;;;;;;;4.00;54.31;101505.47;4964238;28;20425;-77
2024/01/09 16:03:26;;;;;;;0.00;0.00;;;;;;;3.76;54.34;101514.00;4990885;28;20116;-78
2024/01/09 16:06:04;;;;;;;0.00;0.00;;;;;;;3.62;54.79;101522.00;4956183;28;20038;-79
2024/01/09 16:08:46;;;;;;;0.00;0.00;;;;;;;3.36;56.75;101503.66;4956284;28;20372;-77
2024/01/09 16:11:12;;;;;;;0.00;0.00;;;;;;;3.12;57.95;101507.53;4961792;28;20069;-76
2024/01/09 16:13:38;;;;;;;0.00;0.00;;;;;;;2.96;58.12;101514.84;4966549;28;20058;-77
2024/01/09 16:16:21;;;;;;;0.00;0.00;;;;;;;2.62;58.65;101497.34;4949850;28;20023;-77
2024/01/09 16:18:49;;;;;;;0.00;0.00;;;;;;;2.45;59.86;101490.44;4961216;28;20027;-76
2024/01/09 16:21:17;;;;;;;0.00;0.00;;;;;;;2.51;60.26;101505.94;4973785;28;20033;-75
2024/01/09 16:24:05;;;;;;;;;;;;;;;;;;;;;
2024/01/09 16:26:34;;;;;;;0.00;0.00;;;;;;;2.22;62.38;101496.78;4973982;28;20766;-74
2024/01/09 16:29:08;;;;;;;0.00;0.00;;;;;;;2.19;63.44;101497.16;4955036;28;20414;-76
2024/01/09 16:31:51;;;;;;;0.00;0.00;;;;;;;2.19;63.52;101513.34;4961527;28;20022;-76
2024/01/09 16:34:17;;;;;;;0.00;0.00;;;;;;;1.90;63.40;101482.56;4978978;28;20113;-78
2024/01/09 16:37:29;;;;;;;0.10;0.10;;;;;;;2.17;63.24;101536.97;4975328;28;20046;-75
2024/01/09 16:39:56;;;;;;;0.00;0.00;;;;;;;1.69;64.88;101474.34;4958597;28;20049;-75
2024/01/09 16:42:24;;;;;;;0.00;0.00;;;;;;;2.04;65.52;101548.38;4974175;28;20037;-76
2024/01/09 16:45:10;;;;;;;0.00;0.00;;;;;;;1.87;64.96;101536.91;4967858;28;20041;-77
2024/01/09 16:47:36;;;;;;;0.00;0.00;;;;;;;1.51;65.68;101499.75;4958381;28;20045;-77
2024/01/09 16:50:13;;;;;;;0.00;0.00;;;;;;;1.44;66.53;101484.47;4953410;28;20058;-77
2024/01/09 16:52:47;;;;;;;0.10;0.10;;;;;;;1.66;67.09;101540.25;4957829;28;20022;-76
2024/01/09 16:55:24;;;;;;;0.00;0.00;;;;;;;1.63;67.91;101545.16;4936161;28;20039;-77
2024/01/09 17:01:41;;;;;;;0.00;0.00;;;;;;;1.15;67.92;101492.22;4879486;29;20032;-77
2024/01/09 17:04:34;;;;;;;0.10;0.10;;;;;;;1.28;68.48;101523.16;4917128;28;20308;-77
2024/01/09 17:07:02;;;;;;;0.00;0.00;;;;;;;1.18;69.48;101518.84;4938357;28;20100;-76
2024/01/09 17:09:33;;;;;;;0.00;0.00;;;;;;;1.34;69.23;101562.88;4981021;28;20430;-77
2024/01/09 17:12:19;;;;;;;0.00;0.00;;;;;;;0.98;69.27;101509.50;4967432;28;20114;-76
2024/01/09 17:14:45;;;;;;;0.00;0.00;;;;;;;1.28;69.61;101569.81;4975644;28;20042;-78
2024/01/09 17:17:16;;;;;;;0.00;0.00;;;;;;;1.07;70.16;101540.78;4972086;28;20031;-76
2024/01/09 17:19:41;;;;;;;0.00;0.00;;;;;;;1.24;69.92;101570.34;4959717;28;20118;-76
2024/01/09 17:22:10;;;;;;;0.00;0.00;;;;;;;1.12;71.02;101559.94;4979871;28;20062;-78
2024/01/09 17:24:36;;;;;;;0.10;0.10;;;;;;;1.04;70.72;101549.22;4968326;28;20050;-77
2024/01/09 17:27:04;;;;;;;0.00;0.00;;;;;;;0.78;71.46;101509.94;4969951;28;20057;-75
2024/01/09 17:29:36;;;;;;;0.10;0.10;;;;;;;0.72;71.77;101507.94;4965439;28;20113;-76
2024/01/09 17:32:32;;;;;;;;;;;;;;;;;;;;;
2024/01/09 17:35:00;;;;;;;0.00;0.00;;;;;;;0.94;72.27;101543.22;4980476;28;20045;-76
2024/01/09 17:37:41;;;;;;;0.00;0.00;;;;;;;1.00;72.99;101572.13;4962864;28;20077;-76
2024/01/09 17:40:10;;;;;;;0.10;0.10;;;;;;;0.73;72.72;101522.22;4987886;28;20026;-74
2024/01/09 17:42:56;;;;;;;0.00;0.00;;;;;;;0.97;72.95;101578.69;4959537;28;20038;-76
2024/01/09 17:45:22;;;;;;;0.00;0.00;;;;;;;0.80;73.35;101567.13;4953880;28;20026;-77
2024/01/09 17:47:55;;;;;;;0.00;0.00;;;;;;;0.85;73.24;101580.94;4967819;28;20046;-77
2024/01/09 17:50:21;;;;;;;0.10;0.10;;;;;;;0.89;73.34;101602.13;4965652;28;20448;-79
2024/01/09 17:56:05;;;;;;;0.10;0.10;;;;;;;0.43;73.55;101538.97;4889077;29;20040;-79
2024/01/09 18:02:42;;;;;;;;;;;;;;;;;;;;;
2024/01/09 18:05:26;;;;;;;0.00;0.00;;;;;;;0.75;74.37;101585.69;4976434;28;20117;-78
2024/01/09 18:08:00;;;;;;;0.10;0.10;;;;;;;0.59;74.28;101564.19;4962102;28;20097;-80
2024/01/09 18:10:45;;;;;;;;;;;;;;;;;;;;;
2024/01/09 18:13:41;;;;;;;0.00;0.00;;;;;;;0.44;74.16;101550.56;4984905;28;20117;-76
2024/01/09 18:16:09;;;;;;;;;;;;;;;0.68;74.25;101584.69;4973809;28;20038;-76
2024/01/09 18:18:35;;;;;;;0.10;0.10;;;;;;;0.63;74.38;101587.91;4964494;28;20636;-76
2024/01/09 18:21:00;;;;;;;0.10;0.10;;;;;;;0.45;74.53;101555.81;4938068;28;20098;-76
2024/01/09 18:23:34;;;;;;;0.00;0.00;;;;;;;0.40;74.10;101549.25;4947733;28;20441;-76
2024/01/09 18:26:17;;;;;;;0.10;0.10;;;;;;;0.58;74.60;101578.66;4957054;28;20041;-78
2024/01/09 18:28:45;;;;;;;0.10;0.10;;;;;;;0.34;74.60;101540.03;4960366;28;20038;-77
2024/01/09 18:31:11;;;;;;;0.10;0.10;;;;;;;0.47;74.12;101575.31;4967615;28;20057;-76
2024/01/09 18:34:17;;;;;;;;;;;;;;;;;;;;;
2024/01/09 18:36:54;;;;;;;0.10;0.10;;;;;;;0.30;75.11;101554.81;4978285;28;20053;-77
2024/01/09 18:39:20;;;;;;;0.00;0.00;;;;;;;0.37;74.31;101584.59;4957537;28;20049;-76
2024/01/09 18:41:56;;;;;;;0.10;0.10;;;;;;;0.30;73.88;101581.72;4958840;28;20041;-77
2024/01/09 18:44:25;;;;;;;0.10;0.10;;;;;;;0.34;73.98;101583.06;4970881;28;20022;-77
2024/01/09 18:46:53;;;;;;;0.10;0.10;;;;;;;0.32;74.12;101602.09;4983258;28;20025;-78
2024/01/09 18:49:18;;;;;;;0.00;0.00;;;;;;;0.29;74.32;101590.81;4971078;28;20030;-78
2024/01/09 18:51:44;;;;;;;0.10;0.10;;;;;;;0.38;74.25;101616.72;4971352;28;20072;-77
2024/01/09 18:54:11;;;;;;;0.00;0.00;;;;;;;0.20;74.30;101602.59;4944133;28;20500;-77
2024/01/09 18:56:37;;;;;;;0.10;0.10;;;;;;;0.23;74.43;101618.38;4962671;28;20482;-76
2024/01/09 18:59:12;;;;;;;0.10;0.10;;;;;;;-0.05;74.10;101594.50;4965846;28;20093;-78
2024/01/09 19:01:42;;;;;;;0.00;0.00;;;;;;;-0.04;74.30;101596.19;4948398;28;20492;-75
2024/01/09 19:04:43;;;;;;;;;;;;;;;;;;;;;
2024/01/09 19:07:38;;;;;;;0.00;0.00;;;;;;;0.11;74.07;101620.56;4978162;28;20035;-76
2024/01/09 19:11:09;;;;;;;;;;;;;;;;;;;;;
2024/01/09 19:13:52;;;;;;;0.00;0.00;;;;;;;-0.33;75.05;101526.78;4964709;28;20121;-74
2024/01/09 19:16:29;;;;;;;0.00;0.00;;;;;;;-0.19;74.93;101548.47;4985714;28;20026;-76
2024/01/09 19:19:14;;;;;;;0.10;0.10;;;;;;;-0.24;74.62;101553.47;4962202;28;20027;-76
2024/01/09 19:21:59;;;;;;;0.10;0.10;;;;;;;-0.31;74.64;101547.09;4962096;28;20073;-76
2024/01/09 19:28:36;;;;;;;;;;;;;;;;;;;;;
2024/01/09 19:31:58;;;;;;;0.10;0.10;;;;;;;-0.02;74.48;101599.56;4928359;29;20039;-77
2024/01/09 19:34:47;;;;;;;0.10;0.10;;;;;;;0.01;75.50;101615.34;4929213;29;20019;-78
2024/01/09 19:37:14;;;;;;;0.10;0.10;;;;;;;0.01;74.78;101617.22;4935533;29;20104;-76
2024/01/09 19:39:44;;;;;;;0.00;0.00;;;;;;;-0.12;74.72;101604.25;4965502;28;20885;-78
2024/01/09 19:42:12;;;;;;;0.10;0.10;;;;;;;-0.24;75.10;101599.19;4970201;28;20460;-78
2024/01/09 19:45:07;;;;;;;0.00;0.00;;;;;;;-0.43;74.89;101576.13;4971684;28;20149;-76
2024/01/09 19:47:53;;;;;;;0.10;0.10;;;;;;;-0.15;75.38;101626.09;4959463;28;20030;-77
2024/01/09 19:50:19;;;;;;;0.00;0.00;;;;;;;-0.56;74.84;101559.66;4957031;28;20106;-77
2024/01/09 19:52:57;;;;;;;;;;;;;;;;;;;;;
2024/01/09 19:56:15;;;;;;;0.00;0.00;;;;;;;-0.58;75.54;101554.44;4976117;28;20019;-74
2024/01/09 19:58:40;;;;;;;0.00;0.00;;;;;;;-0.32;75.63;101598.34;4960035;28;20076;-77
2024/01/09 20:12:11;;;;;;;0.10;0.10;;;;;;;-0.31;76.35;101605.41;4852563;29;20053;-74
2024/01/09 20:14:53;;;;;;;0.10;0.10;;;;;;;-0.38;76.06;101594.47;4856671;29;20037;-73
2024/01/09 20:18:06;;;;;;;;;;;;;;;;;;;;;
2024/01/09 20:20:50;;;;;;;0.10;0.10;;;;;;;-0.46;76.66;101575.66;4894081;29;20040;-75
2024/01/09 20:23:16;;;;;;;0.10;0.10;;;;;;;-0.60;77.23;101553.78;4892493;29;20024;-74
2024/01/09 20:25:49;;;;;;;0.10;0.10;;;;;;;-0.44;76.67;101584.38;4938923;28;20034;-73
2024/01/09 20:28:24;;;;;;;0.00;0.00;;;;;;;-0.56;77.41;101571.25;4968649;28;20038;-73
2024/01/09 20:30:49;;;;;;;0.00;0.00;;;;;;;-0.49;77.01;101575.97;4979624;28;20054;-73